sensor_id;sensor_type;location;lat;lon;timestamp;P1;durP1;ratioP1;P2;durP2;ratioP2
15526;SDS011;7865;50.918;4.510;2022-09-13T00:02:51;5.53;;;1.92;;
15526;SDS011;7865;50.918;4.510;2022-09-13T00:07:52;5.47;;;1.75;;
15526;SDS011;7865;50.918;4.510;2022-09-13T00:12:55;3.03;;;2.30;;
15526;SDS011;7865;50.918;4.510;2022-09-13T00:17:56;3.90;;;2.25;;
15526;SDS011;7865;50.918;4.510;2022-09-13T00:22:57;5.47;;;1.98;;
15526;SDS011;7865;50.918;4.510;2022-09-13T00:27:58;6.18;;;2.28;;
15526;SDS011;7865;50.918;4.510;2022-09-13T00:32:59;4.70;;;2.30;;
15526;SDS011;7865;50.918;4.510;2022-09-13T00:38:04;3.95;;;2.20;;
15526;SDS011;7865;50.918;4.510;2022-09-13T00:43:09;4.25;;;2.25;;
15526;SDS011;7865;50.918;4.510;2022-09-13T00:48:18;2.53;;;1.95;;
15526;SDS011;7865;50.918;4.510;2022-09-13T00:53:24;6.82;;;2.28;;
15526;SDS011;7865;50.918;4.510;2022-09-13T00:58:31;2.58;;;1.75;;
15526;SDS011;7865;50.918;4.510;2022-09-13T01:03:36;4.80;;;1.98;;
15526;SDS011;7865;50.918;4.510;2022-09-13T01:08:39;3.95;;;2.10;;
15526;SDS011;7865;50.918;4.510;2022-09-13T01:13:43;2.78;;;2.03;;
15526;SDS011;7865;50.918;4.510;2022-09-13T01:18:45;3.55;;;2.08;;
15526;SDS011;7865;50.918;4.510;2022-09-13T01:40:31;2.47;;;2.28;;
15526;SDS011;7865;50.918;4.510;2022-09-13T01:45:36;2.58;;;2.15;;
15526;SDS011;7865;50.918;4.510;2022-09-13T01:50:41;2.70;;;2.38;;
15526;SDS011;7865;50.918;4.510;2022-09-13T01:55:50;6.63;;;2.50;;
15526;SDS011;7865;50.918;4.510;2022-09-13T02:06:19;2.72;;;2.00;;
15526;SDS011;7865;50.918;4.510;2022-09-13T02:11:23;3.55;;;2.70;;
15526;SDS011;7865;50.918;4.510;2022-09-13T02:16:32;2.75;;;2.22;;
15526;SDS011;7865;50.918;4.510;2022-09-13T02:21:42;4.57;;;2.25;;
15526;SDS011;7865;50.918;4.510;2022-09-13T02:26:46;3.08;;;2.13;;
15526;SDS011;7865;50.918;4.510;2022-09-13T02:31:57;7.53;;;2.33;;
15526;SDS011;7865;50.918;4.510;2022-09-13T02:37:06;2.28;;;2.08;;
15526;SDS011;7865;50.918;4.510;2022-09-13T02:42:16;2.70;;;2.50;;
15526;SDS011;7865;50.918;4.510;2022-09-13T02:47:26;4.07;;;2.10;;
15526;SDS011;7865;50.918;4.510;2022-09-13T02:52:51;3.15;;;2.13;;
15526;SDS011;7865;50.918;4.510;2022-09-13T03:03:27;4.60;;;2.10;;
15526;SDS011;7865;50.918;4.510;2022-09-13T03:08:28;3.08;;;2.28;;
15526;SDS011;7865;50.918;4.510;2022-09-13T03:13:42;3.20;;;2.05;;
15526;SDS011;7865;50.918;4.510;2022-09-13T03:24:02;5.70;;;2.97;;
15526;SDS011;7865;50.918;4.510;2022-09-13T03:40:09;3.42;;;2.53;;
15526;SDS011;7865;50.918;4.510;2022-09-13T03:45:15;4.32;;;2.40;;
15526;SDS011;7865;50.918;4.510;2022-09-13T03:50:19;2.33;;;2.13;;
15526;SDS011;7865;50.918;4.510;2022-09-13T03:55:23;5.90;;;2.47;;
15526;SDS011;7865;50.918;4.510;2022-09-13T04:00:25;3.10;;;2.50;;
15526;SDS011;7865;50.918;4.510;2022-09-13T04:05:27;5.43;;;3.08;;
15526;SDS011;7865;50.918;4.510;2022-09-13T04:10:28;5.20;;;2.80;;
15526;SDS011;7865;50.918;4.510;2022-09-13T04:15:31;3.33;;;2.30;;
15526;SDS011;7865;50.918;4.510;2022-09-13T04:20:32;3.53;;;2.47;;
15526;SDS011;7865;50.918;4.510;2022-09-13T04:25:37;2.80;;;2.40;;
15526;SDS011;7865;50.918;4.510;2022-09-13T04:30:42;5.95;;;2.63;;
15526;SDS011;7865;50.918;4.510;2022-09-13T04:35:47;3.15;;;2.50;;
15526;SDS011;7865;50.918;4.510;2022-09-13T04:40:54;5.75;;;2.28;;
15526;SDS011;7865;50.918;4.510;2022-09-13T04:45:58;5.20;;;2.70;;
15526;SDS011;7865;50.918;4.510;2022-09-13T04:51:01;3.28;;;2.58;;
15526;SDS011;7865;50.918;4.510;2022-09-13T04:56:04;2.60;;;2.40;;
15526;SDS011;7865;50.918;4.510;2022-09-13T05:01:07;3.28;;;2.50;;
15526;SDS011;7865;50.918;4.510;2022-09-13T05:06:14;5.65;;;2.55;;
15526;SDS011;7865;50.918;4.510;2022-09-13T05:11:20;3.80;;;2.80;;
15526;SDS011;7865;50.918;4.510;2022-09-13T05:16:23;7.50;;;3.08;;
15526;SDS011;7865;50.918;4.510;2022-09-13T05:21:25;5.28;;;2.80;;
15526;SDS011;7865;50.918;4.510;2022-09-13T05:26:30;4.82;;;3.30;;
15526;SDS011;7865;50.918;4.510;2022-09-13T05:31:33;4.80;;;3.00;;
15526;SDS011;7865;50.918;4.510;2022-09-13T05:36:36;6.78;;;3.30;;
15526;SDS011;7865;50.918;4.510;2022-09-13T05:41:37;4.38;;;2.92;;
15526;SDS011;7865;50.918;4.510;2022-09-13T05:46:38;6.88;;;3.20;;
15526;SDS011;7865;50.918;4.510;2022-09-13T05:51:40;5.30;;;2.60;;
15526;SDS011;7865;50.918;4.510;2022-09-13T05:56:42;5.85;;;2.83;;
15526;SDS011;7865;50.918;4.510;2022-09-13T06:01:43;5.47;;;3.10;;
15526;SDS011;7865;50.918;4.510;2022-09-13T06:06:44;4.43;;;3.00;;
15526;SDS011;7865;50.918;4.510;2022-09-13T06:11:46;5.63;;;3.35;;
15526;SDS011;7865;50.918;4.510;2022-09-13T06:16:47;5.63;;;3.55;;
15526;SDS011;7865;50.918;4.510;2022-09-13T06:21:48;4.30;;;3.50;;
15526;SDS011;7865;50.918;4.510;2022-09-13T06:26:49;4.57;;;3.45;;
15526;SDS011;7865;50.918;4.510;2022-09-13T06:31:50;7.22;;;3.35;;
15526;SDS011;7865;50.918;4.510;2022-09-13T06:36:51;8.30;;;3.95;;
15526;SDS011;7865;50.918;4.510;2022-09-13T06:41:52;7.25;;;3.78;;
15526;SDS011;7865;50.918;4.510;2022-09-13T06:47:01;7.07;;;3.80;;
15526;SDS011;7865;50.918;4.510;2022-09-13T06:52:02;7.07;;;3.58;;
15526;SDS011;7865;50.918;4.510;2022-09-13T06:57:03;6.65;;;3.88;;
15526;SDS011;7865;50.918;4.510;2022-09-13T07:02:04;8.68;;;3.95;;
15526;SDS011;7865;50.918;4.510;2022-09-13T07:07:06;7.55;;;3.75;;
15526;SDS011;7865;50.918;4.510;2022-09-13T07:12:07;9.00;;;4.28;;
15526;SDS011;7865;50.918;4.510;2022-09-13T07:17:08;8.80;;;4.03;;
15526;SDS011;7865;50.918;4.510;2022-09-13T07:22:09;6.93;;;3.50;;
15526;SDS011;7865;50.918;4.510;2022-09-13T07:27:10;9.18;;;3.08;;
15526;SDS011;7865;50.918;4.510;2022-09-13T07:32:12;9.85;;;3.17;;
15526;SDS011;7865;50.918;4.510;2022-09-13T07:37:14;12.38;;;3.58;;
15526;SDS011;7865;50.918;4.510;2022-09-13T07:42:15;9.30;;;3.42;;
15526;SDS011;7865;50.918;4.510;2022-09-13T07:47:16;11.18;;;4.18;;
15526;SDS011;7865;50.918;4.510;2022-09-13T07:52:18;12.48;;;3.95;;
15526;SDS011;7865;50.918;4.510;2022-09-13T07:57:19;9.50;;;3.40;;
15526;SDS011;7865;50.918;4.510;2022-09-13T08:02:20;11.85;;;3.50;;
15526;SDS011;7865;50.918;4.510;2022-09-13T08:07:21;9.35;;;4.65;;
15526;SDS011;7865;50.918;4.510;2022-09-13T08:12:22;9.77;;;4.53;;
15526;SDS011;7865;50.918;4.510;2022-09-13T08:17:24;7.25;;;4.13;;
15526;SDS011;7865;50.918;4.510;2022-09-13T08:22:25;8.18;;;4.47;;
15526;SDS011;7865;50.918;4.510;2022-09-13T08:27:27;9.13;;;4.45;;
15526;SDS011;7865;50.918;4.510;2022-09-13T08:32:28;14.23;;;4.13;;
15526;SDS011;7865;50.918;4.510;2022-09-13T08:37:30;10.30;;;4.93;;
15526;SDS011;7865;50.918;4.510;2022-09-13T08:42:45;10.05;;;4.88;;
15526;SDS011;7865;50.918;4.510;2022-09-13T08:48:03;6.93;;;4.70;;
15526;SDS011;7865;50.918;4.510;2022-09-13T08:53:18;10.98;;;4.80;;
15526;SDS011;7865;50.918;4.510;2022-09-13T08:58:32;15.82;;;5.05;;
15526;SDS011;7865;50.918;4.510;2022-09-13T09:04:11;11.38;;;5.60;;
15526;SDS011;7865;50.918;4.510;2022-09-13T09:09:34;9.85;;;5.30;;
15526;SDS011;7865;50.918;4.510;2022-09-13T09:14:41;12.57;;;5.10;;
15526;SDS011;7865;50.918;4.510;2022-09-13T09:19:51;11.02;;;6.78;;
15526;SDS011;7865;50.918;4.510;2022-09-13T09:25:00;9.07;;;5.80;;
15526;SDS011;7865;50.918;4.510;2022-09-13T09:30:02;7.72;;;4.70;;
15526;SDS011;7865;50.918;4.510;2022-09-13T09:40:36;8.80;;;5.97;;
15526;SDS011;7865;50.918;4.510;2022-09-13T09:45:38;8.25;;;4.63;;
15526;SDS011;7865;50.918;4.510;2022-09-13T09:50:43;6.20;;;4.80;;
15526;SDS011;7865;50.918;4.510;2022-09-13T09:55:57;13.43;;;6.00;;
15526;SDS011;7865;50.918;4.510;2022-09-13T10:01:00;7.90;;;4.75;;
15526;SDS011;7865;50.918;4.510;2022-09-13T10:06:05;8.27;;;5.35;;
15526;SDS011;7865;50.918;4.510;2022-09-13T10:11:09;7.30;;;5.30;;
15526;SDS011;7865;50.918;4.510;2022-09-13T10:16:27;9.95;;;5.95;;
15526;SDS011;7865;50.918;4.510;2022-09-13T10:21:30;9.88;;;6.50;;
15526;SDS011;7865;50.918;4.510;2022-09-13T10:26:31;13.65;;;7.60;;
15526;SDS011;7865;50.918;4.510;2022-09-13T10:31:34;10.82;;;6.90;;
15526;SDS011;7865;50.918;4.510;2022-09-13T10:36:50;12.27;;;6.60;;
15526;SDS011;7865;50.918;4.510;2022-09-13T10:41:57;9.57;;;6.18;;
15526;SDS011;7865;50.918;4.510;2022-09-13T10:47:06;11.48;;;6.10;;
15526;SDS011;7865;50.918;4.510;2022-09-13T10:52:29;7.38;;;5.53;;
15526;SDS011;7865;50.918;4.510;2022-09-13T10:57:36;7.30;;;6.05;;
15526;SDS011;7865;50.918;4.510;2022-09-13T11:34:15;4.22;;;3.83;;
15526;SDS011;7865;50.918;4.510;2022-09-13T11:39:42;8.00;;;4.88;;
15526;SDS011;7865;50.918;4.510;2022-09-13T11:55:23;5.93;;;3.78;;
15526;SDS011;7865;50.918;4.510;2022-09-13T12:00:33;8.32;;;3.65;;
15526;SDS011;7865;50.918;4.510;2022-09-13T12:05:47;4.82;;;2.65;;
15526;SDS011;7865;50.918;4.510;2022-09-13T12:10:54;4.82;;;2.15;;
15526;SDS011;7865;50.918;4.510;2022-09-13T12:16:04;5.32;;;2.97;;
15526;SDS011;7865;50.918;4.510;2022-09-13T12:21:12;4.93;;;3.45;;
15526;SDS011;7865;50.918;4.510;2022-09-13T12:31:35;6.07;;;3.38;;
15526;SDS011;7865;50.918;4.510;2022-09-13T12:36:49;4.70;;;2.90;;
15526;SDS011;7865;50.918;4.510;2022-09-13T12:53:31;4.70;;;3.75;;
15526;SDS011;7865;50.918;4.510;2022-09-13T12:58:51;6.50;;;4.00;;
15526;SDS011;7865;50.918;4.510;2022-09-13T13:04:14;6.30;;;3.63;;
15526;SDS011;7865;50.918;4.510;2022-09-13T13:09:32;7.38;;;4.45;;
15526;SDS011;7865;50.918;4.510;2022-09-13T13:19:38;7.25;;;4.13;;
15526;SDS011;7865;50.918;4.510;2022-09-13T13:24:42;6.60;;;4.18;;
15526;SDS011;7865;50.918;4.510;2022-09-13T13:29:48;6.63;;;3.78;;
15526;SDS011;7865;50.918;4.510;2022-09-13T13:35:29;6.50;;;4.38;;
15526;SDS011;7865;50.918;4.510;2022-09-13T13:40:32;7.75;;;4.65;;
15526;SDS011;7865;50.918;4.510;2022-09-13T13:45:33;8.57;;;4.82;;
15526;SDS011;7865;50.918;4.510;2022-09-13T13:50:34;9.45;;;4.22;;
15526;SDS011;7865;50.918;4.510;2022-09-13T14:01:24;8.52;;;4.18;;
15526;SDS011;7865;50.918;4.510;2022-09-13T14:06:36;7.18;;;4.20;;
15526;SDS011;7865;50.918;4.510;2022-09-13T14:22:43;5.80;;;4.68;;
15526;SDS011;7865;50.918;4.510;2022-09-13T14:27:45;9.57;;;4.63;;
15526;SDS011;7865;50.918;4.510;2022-09-13T14:32:49;6.57;;;4.03;;
15526;SDS011;7865;50.918;4.510;2022-09-13T14:37:52;5.07;;;3.40;;
15526;SDS011;7865;50.918;4.510;2022-09-13T14:42:55;6.72;;;3.22;;
15526;SDS011;7865;50.918;4.510;2022-09-13T14:47:59;7.03;;;3.40;;
15526;SDS011;7865;50.918;4.510;2022-09-13T14:53:26;7.18;;;3.90;;
15526;SDS011;7865;50.918;4.510;2022-09-13T14:58:44;7.85;;;3.88;;
15526;SDS011;7865;50.918;4.510;2022-09-13T15:03:48;8.10;;;5.20;;
15526;SDS011;7865;50.918;4.510;2022-09-13T15:08:51;9.60;;;6.35;;
15526;SDS011;7865;50.918;4.510;2022-09-13T15:14:22;9.52;;;7.18;;
15526;SDS011;7865;50.918;4.510;2022-09-13T15:19:27;12.38;;;7.70;;
15526;SDS011;7865;50.918;4.510;2022-09-13T15:24:32;8.50;;;7.60;;
15526;SDS011;7865;50.918;4.510;2022-09-13T15:29:34;10.68;;;8.15;;
15526;SDS011;7865;50.918;4.510;2022-09-13T15:34:44;12.45;;;8.88;;
15526;SDS011;7865;50.918;4.510;2022-09-13T15:39:47;10.90;;;9.40;;
15526;SDS011;7865;50.918;4.510;2022-09-13T15:44:51;20.10;;;9.50;;
15526;SDS011;7865;50.918;4.510;2022-09-13T15:49:52;12.27;;;9.25;;
15526;SDS011;7865;50.918;4.510;2022-09-13T15:54:54;14.93;;;10.05;;
15526;SDS011;7865;50.918;4.510;2022-09-13T15:59:55;11.10;;;9.95;;
15526;SDS011;7865;50.918;4.510;2022-09-13T16:05:10;13.05;;;9.90;;
15526;SDS011;7865;50.918;4.510;2022-09-13T16:10:13;11.13;;;9.23;;
15526;SDS011;7865;50.918;4.510;2022-09-13T16:15:20;14.35;;;10.20;;
15526;SDS011;7865;50.918;4.510;2022-09-13T16:20:21;14.48;;;10.20;;
15526;SDS011;7865;50.918;4.510;2022-09-13T16:25:22;13.60;;;9.70;;
15526;SDS011;7865;50.918;4.510;2022-09-13T16:30:24;12.63;;;9.85;;
15526;SDS011;7865;50.918;4.510;2022-09-13T16:35:29;12.32;;;9.52;;
15526;SDS011;7865;50.918;4.510;2022-09-13T16:40:32;11.00;;;8.73;;
15526;SDS011;7865;50.918;4.510;2022-09-13T16:45:37;11.07;;;9.82;;
15526;SDS011;7865;50.918;4.510;2022-09-13T16:50:39;12.75;;;8.70;;
15526;SDS011;7865;50.918;4.510;2022-09-13T16:55:40;10.15;;;8.95;;
15526;SDS011;7865;50.918;4.510;2022-09-13T17:00:42;12.73;;;10.30;;
15526;SDS011;7865;50.918;4.510;2022-09-13T17:05:44;15.77;;;11.05;;
15526;SDS011;7865;50.918;4.510;2022-09-13T17:10:56;18.35;;;11.63;;
15526;SDS011;7865;50.918;4.510;2022-09-13T17:15:58;13.93;;;10.68;;
15526;SDS011;7865;50.918;4.510;2022-09-13T17:20:59;15.15;;;12.13;;
15526;SDS011;7865;50.918;4.510;2022-09-13T17:26:00;13.68;;;12.30;;
15526;SDS011;7865;50.918;4.510;2022-09-13T17:31:02;15.02;;;12.10;;
15526;SDS011;7865;50.918;4.510;2022-09-13T17:36:04;14.60;;;13.07;;
15526;SDS011;7865;50.918;4.510;2022-09-13T17:41:09;12.68;;;10.98;;
15526;SDS011;7865;50.918;4.510;2022-09-13T17:46:13;14.80;;;10.85;;
15526;SDS011;7865;50.918;4.510;2022-09-13T17:51:22;14.02;;;11.20;;
15526;SDS011;7865;50.918;4.510;2022-09-13T17:56:36;14.45;;;12.52;;
15526;SDS011;7865;50.918;4.510;2022-09-13T18:01:47;16.48;;;12.48;;
15526;SDS011;7865;50.918;4.510;2022-09-13T18:06:53;16.85;;;12.63;;
15526;SDS011;7865;50.918;4.510;2022-09-13T18:11:55;13.00;;;11.13;;
15526;SDS011;7865;50.918;4.510;2022-09-13T18:16:56;17.20;;;13.05;;
15526;SDS011;7865;50.918;4.510;2022-09-13T18:21:57;15.73;;;13.65;;
15526;SDS011;7865;50.918;4.510;2022-09-13T18:27:01;15.75;;;13.05;;
15526;SDS011;7865;50.918;4.510;2022-09-13T18:32:03;18.85;;;14.27;;
15526;SDS011;7865;50.918;4.510;2022-09-13T18:37:04;16.92;;;13.63;;
15526;SDS011;7865;50.918;4.510;2022-09-13T18:42:05;15.60;;;13.45;;
15526;SDS011;7865;50.918;4.510;2022-09-13T18:47:07;15.00;;;11.98;;
15526;SDS011;7865;50.918;4.510;2022-09-13T18:52:12;12.82;;;10.48;;
15526;SDS011;7865;50.918;4.510;2022-09-13T18:57:13;13.32;;;10.38;;
15526;SDS011;7865;50.918;4.510;2022-09-13T19:02:15;13.80;;;10.52;;
15526;SDS011;7865;50.918;4.510;2022-09-13T19:07:16;17.73;;;10.57;;
15526;SDS011;7865;50.918;4.510;2022-09-13T19:12:17;12.35;;;10.13;;
15526;SDS011;7865;50.918;4.510;2022-09-13T19:17:18;14.20;;;11.07;;
15526;SDS011;7865;50.918;4.510;2022-09-13T19:22:20;14.40;;;10.65;;
15526;SDS011;7865;50.918;4.510;2022-09-13T19:27:21;13.23;;;10.45;;
15526;SDS011;7865;50.918;4.510;2022-09-13T19:32:22;12.27;;;10.30;;
15526;SDS011;7865;50.918;4.510;2022-09-13T19:37:23;15.98;;;10.90;;
15526;SDS011;7865;50.918;4.510;2022-09-13T19:42:25;14.35;;;10.52;;
15526;SDS011;7865;50.918;4.510;2022-09-13T19:47:26;17.27;;;11.50;;
15526;SDS011;7865;50.918;4.510;2022-09-13T19:52:47;16.35;;;11.75;;
15526;SDS011;7865;50.918;4.510;2022-09-13T19:57:49;19.40;;;11.82;;
15526;SDS011;7865;50.918;4.510;2022-09-13T20:02:50;15.75;;;13.05;;
15526;SDS011;7865;50.918;4.510;2022-09-13T20:07:51;16.88;;;13.05;;
15526;SDS011;7865;50.918;4.510;2022-09-13T20:12:53;17.25;;;13.23;;
15526;SDS011;7865;50.918;4.510;2022-09-13T20:17:54;16.92;;;11.98;;
15526;SDS011;7865;50.918;4.510;2022-09-13T20:22:56;18.42;;;12.80;;
15526;SDS011;7865;50.918;4.510;2022-09-13T20:27:57;18.17;;;13.48;;
15526;SDS011;7865;50.918;4.510;2022-09-13T20:32:59;16.27;;;13.02;;
15526;SDS011;7865;50.918;4.510;2022-09-13T20:38:00;16.80;;;12.77;;
15526;SDS011;7865;50.918;4.510;2022-09-13T20:43:01;21.67;;;14.18;;
15526;SDS011;7865;50.918;4.510;2022-09-13T20:48:02;19.10;;;15.45;;
15526;SDS011;7865;50.918;4.510;2022-09-13T20:53:03;19.15;;;15.65;;
15526;SDS011;7865;50.918;4.510;2022-09-13T20:58:04;24.70;;;18.83;;
15526;SDS011;7865;50.918;4.510;2022-09-13T21:03:06;25.40;;;19.70;;
15526;SDS011;7865;50.918;4.510;2022-09-13T21:08:17;26.50;;;20.60;;
15526;SDS011;7865;50.918;4.510;2022-09-13T21:13:37;31.58;;;23.60;;
15526;SDS011;7865;50.918;4.510;2022-09-13T21:18:42;23.48;;;19.42;;
15526;SDS011;7865;50.918;4.510;2022-09-13T21:23:44;25.88;;;18.98;;
15526;SDS011;7865;50.918;4.510;2022-09-13T21:28:46;17.75;;;13.43;;
15526;SDS011;7865;50.918;4.510;2022-09-13T21:33:48;14.07;;;11.20;;
15526;SDS011;7865;50.918;4.510;2022-09-13T21:38:56;14.48;;;11.43;;
15526;SDS011;7865;50.918;4.510;2022-09-13T21:43:57;15.52;;;10.52;;
15526;SDS011;7865;50.918;4.510;2022-09-13T21:49:00;16.02;;;10.98;;
15526;SDS011;7865;50.918;4.510;2022-09-13T21:54:04;11.95;;;9.50;;
15526;SDS011;7865;50.918;4.510;2022-09-13T21:59:10;13.85;;;10.05;;
15526;SDS011;7865;50.918;4.510;2022-09-13T22:04:16;11.65;;;10.00;;
15526;SDS011;7865;50.918;4.510;2022-09-13T22:09:27;15.40;;;10.13;;
15526;SDS011;7865;50.918;4.510;2022-09-13T22:14:28;10.77;;;9.63;;
15526;SDS011;7865;50.918;4.510;2022-09-13T22:19:29;14.13;;;10.25;;
15526;SDS011;7865;50.918;4.510;2022-09-13T22:24:31;12.75;;;9.65;;
15526;SDS011;7865;50.918;4.510;2022-09-13T22:29:35;11.85;;;9.55;;
15526;SDS011;7865;50.918;4.510;2022-09-13T22:34:36;14.65;;;9.15;;
15526;SDS011;7865;50.918;4.510;2022-09-13T22:39:37;12.68;;;8.32;;
15526;SDS011;7865;50.918;4.510;2022-09-13T22:44:39;12.07;;;8.70;;
15526;SDS011;7865;50.918;4.510;2022-09-13T22:49:40;15.60;;;9.82;;
15526;SDS011;7865;50.918;4.510;2022-09-13T22:54:41;15.18;;;9.75;;
15526;SDS011;7865;50.918;4.510;2022-09-13T22:59:42;13.05;;;8.57;;
15526;SDS011;7865;50.918;4.510;2022-09-13T23:04:43;13.75;;;8.82;;
15526;SDS011;7865;50.918;4.510;2022-09-13T23:09:44;13.00;;;8.50;;
15526;SDS011;7865;50.918;4.510;2022-09-13T23:14:45;14.45;;;9.75;;
15526;SDS011;7865;50.918;4.510;2022-09-13T23:19:46;12.93;;;8.88;;
15526;SDS011;7865;50.918;4.510;2022-09-13T23:24:48;12.23;;;8.82;;
15526;SDS011;7865;50.918;4.510;2022-09-13T23:29:49;18.83;;;9.27;;
15526;SDS011;7865;50.918;4.510;2022-09-13T23:34:50;15.65;;;8.60;;
15526;SDS011;7865;50.918;4.510;2022-09-13T23:39:51;15.57;;;9.55;;
15526;SDS011;7865;50.918;4.510;2022-09-13T23:44:53;11.73;;;8.88;;
15526;SDS011;7865;50.918;4.510;2022-09-13T23:49:54;16.58;;;8.77;;
15526;SDS011;7865;50.918;4.510;2022-09-13T23:54:55;11.60;;;8.13;;
15526;SDS011;7865;50.918;4.510;2022-09-13T23:59:56;13.10;;;8.80;;
